Terminal Aerodrome Forecast
Issued by NWS

Home | Current Version | Previous Version | Text Only | Print | Product List | Glossary On
Versions: 1 2 3 4 5 6 7 8 9 10 11 12 13
000
FTUS45 KABQ 210800 AAA
TAFSAF
TAF AMD
KSAF 210831Z 2109/2206 35011KT P6SM BKN060
     FM212000 31010G18KT P6SM BKN030 BKN050
     FM220100 32006KT P6SM OVC020=

USA.gov is the U.S. government's official web portal to all federal, state and local government web resources and services.